createdAt,value
2018-05-31T00:00:33.191Z,18.00
2018-05-31T00:03:06.961Z,18.10
2018-05-31T00:05:40.579Z,18.20
2018-05-31T00:08:14.208Z,18.40
2018-05-31T00:10:47.740Z,18.60
2018-05-31T00:13:21.266Z,18.80
2018-05-31T00:15:55.545Z,18.90
2018-05-31T00:18:29.125Z,18.90
2018-05-31T00:21:02.664Z,19.00
2018-05-31T00:23:36.260Z,19.10
2018-05-31T00:26:09.818Z,19.30
2018-05-31T00:28:43.385Z,19.30
2018-05-31T00:31:17.840Z,19.40
2018-05-31T00:33:51.529Z,19.30
2018-05-31T00:36:25.863Z,19.40
2018-05-31T00:38:59.495Z,19.30
2018-05-31T00:41:33.067Z,19.30
2018-05-31T00:44:06.648Z,19.30
2018-05-31T00:46:40.266Z,19.20
2018-05-31T00:49:13.889Z,19.20
2018-05-31T00:51:47.426Z,19.20
2018-05-31T00:54:20.949Z,19.10
2018-05-31T00:56:54.471Z,19.10
2018-05-31T00:59:28.013Z,19.20
2018-05-31T01:02:02.503Z,19.00
2018-05-31T01:04:36.917Z,18.90
2018-05-31T01:07:10.543Z,18.80
2018-05-31T01:09:44.179Z,18.70
2018-05-31T01:12:18.098Z,18.70
2018-05-31T01:14:51.927Z,18.80
2018-05-31T01:17:25.686Z,18.80
2018-05-31T01:19:59.431Z,18.80
2018-05-31T01:22:33.948Z,18.90
2018-05-31T01:25:07.592Z,18.90
2018-05-31T01:27:41.419Z,18.80
2018-05-31T01:30:15.275Z,18.60
2018-05-31T01:32:49.024Z,18.60
2018-05-31T01:35:22.788Z,18.20
2018-05-31T01:51:25.842Z,17.10
2018-05-31T01:54:00.353Z,16.50
2018-05-31T01:56:34.015Z,16.50
2018-05-31T01:59:07.660Z,16.80
2018-05-31T02:01:41.201Z,17.10
2018-05-31T02:04:15.574Z,17.50
2018-05-31T02:06:49.213Z,17.50
2018-05-31T02:09:22.743Z,17.50
2018-05-31T02:11:56.405Z,17.50
2018-05-31T02:14:30.730Z,17.50
2018-05-31T02:17:04.993Z,17.60
2018-05-31T02:19:38.687Z,17.60
2018-05-31T02:22:12.212Z,17.60
2018-05-31T02:24:45.831Z,17.70
2018-05-31T02:27:19.349Z,17.70
2018-05-31T02:29:52.910Z,17.60
2018-05-31T02:32:26.441Z,17.30
2018-05-31T02:34:59.963Z,17.10
2018-05-31T02:37:33.472Z,17.10
2018-05-31T02:40:07.083Z,17.20
2018-05-31T02:42:40.633Z,17.30
2018-05-31T02:45:14.143Z,17.40
2018-05-31T02:47:47.665Z,17.40
2018-05-31T02:50:21.222Z,17.30
2018-05-31T02:52:54.837Z,17.40
2018-05-31T02:55:29.168Z,17.10
2018-05-31T02:58:02.700Z,17.10
2018-05-31T03:00:36.370Z,17.10
2018-05-31T03:03:09.904Z,17.10
2018-05-31T03:05:43.460Z,17.10
2018-05-31T03:08:17.050Z,17.00
2018-05-31T03:10:50.584Z,17.00
2018-05-31T03:13:24.131Z,17.10
2018-05-31T03:15:57.674Z,17.10
2018-05-31T03:18:31.243Z,17.00
2018-05-31T03:21:04.790Z,17.10
2018-05-31T03:23:38.261Z,17.00
2018-05-31T03:26:11.942Z,17.00
2018-05-31T03:28:45.662Z,17.00
2018-05-31T03:31:19.316Z,16.90
2018-05-31T03:33:52.946Z,16.90
2018-05-31T03:36:26.428Z,16.90
2018-05-31T03:38:59.967Z,16.90
2018-05-31T03:41:33.511Z,16.80
2018-05-31T03:44:07.060Z,16.80
2018-05-31T03:46:41.371Z,16.60
2018-05-31T03:49:15.049Z,16.60
2018-05-31T03:51:48.635Z,16.70
2018-05-31T03:54:22.152Z,16.70
2018-05-31T03:56:56.503Z,16.60
2018-05-31T03:59:30.173Z,16.60
2018-05-31T04:02:04.499Z,16.70
2018-05-31T04:04:38.160Z,16.70
2018-05-31T04:07:11.644Z,16.80
2018-05-31T04:09:45.927Z,16.70
2018-05-31T04:12:20.235Z,16.30
2018-05-31T04:14:53.989Z,16.40
2018-05-31T04:17:27.684Z,16.00
2018-05-31T04:20:01.178Z,16.20
2018-05-31T04:22:35.454Z,15.90
2018-05-31T04:25:09.135Z,15.90
2018-05-31T04:27:42.760Z,15.50
2018-05-31T04:30:16.277Z,15.80
2018-05-31T04:32:49.778Z,16.20
2018-05-31T04:35:23.306Z,16.50
2018-05-31T04:37:56.972Z,16.70
2018-05-31T04:40:30.675Z,16.80
2018-05-31T04:43:04.230Z,16.90
2018-05-31T04:45:37.791Z,17.10
2018-05-31T04:48:12.086Z,17.40
2018-05-31T04:50:45.770Z,17.40
2018-05-31T04:53:19.531Z,17.50
2018-05-31T04:55:53.823Z,17.60
2018-05-31T04:58:27.488Z,17.60
2018-05-31T05:01:01.089Z,17.40
2018-05-31T05:03:34.758Z,17.00
2018-05-31T05:06:08.304Z,17.30
2018-05-31T05:08:42.603Z,17.60
2018-05-31T05:11:16.290Z,17.60
2018-05-31T05:13:50.746Z,17.20
2018-05-31T05:16:25.178Z,17.40
2018-05-31T05:18:58.886Z,17.40
2018-05-31T05:21:32.496Z,17.70
2018-05-31T05:24:06.256Z,17.80
2018-05-31T05:26:39.829Z,17.90
2018-05-31T05:29:13.369Z,18.00
2018-05-31T05:31:46.892Z,17.60
2018-05-31T05:34:20.438Z,17.40
2018-05-31T05:36:54.007Z,17.50
2018-05-31T05:39:27.585Z,17.50
2018-05-31T05:42:01.351Z,17.80
2018-05-31T05:44:34.939Z,18.00
2018-05-31T05:47:08.657Z,18.30
2018-05-31T05:49:42.170Z,18.50
2018-05-31T05:52:15.795Z,18.70
2018-05-31T05:54:49.368Z,18.90
2018-05-31T05:57:23.839Z,19.20
2018-05-31T05:59:57.572Z,19.20
2018-05-31T06:02:31.215Z,18.80
2018-05-31T06:05:04.841Z,18.70
2018-05-31T06:07:38.844Z,18.70
2018-05-31T06:10:12.507Z,19.10
2018-05-31T06:12:46.003Z,19.40
2018-05-31T06:15:19.574Z,19.60
2018-05-31T06:17:53.207Z,19.80
2018-05-31T06:20:26.925Z,19.60
2018-05-31T06:23:00.562Z,19.40
2018-05-31T06:25:34.131Z,19.40
2018-05-31T06:28:09.176Z,19.80
2018-05-31T06:30:42.747Z,19.80
2018-05-31T06:33:16.291Z,19.90
2018-05-31T06:35:49.862Z,20.20
2018-05-31T06:38:23.637Z,20.30
2018-05-31T06:40:57.384Z,20.50
2018-05-31T06:43:31.009Z,20.60
2018-05-31T06:46:05.300Z,20.90
2018-05-31T06:48:39.618Z,21.00
2018-05-31T06:51:13.200Z,21.00
2018-05-31T06:53:46.914Z,21.10
2018-05-31T06:56:20.511Z,21.10
2018-05-31T06:58:54.940Z,21.10
2018-05-31T07:01:28.449Z,21.10
2018-05-31T07:04:02.028Z,21.20
2018-05-31T07:06:35.777Z,21.30
2018-05-31T07:09:10.239Z,21.00
2018-05-31T07:11:44.041Z,21.00
2018-05-31T07:14:17.718Z,21.00
2018-05-31T07:16:51.309Z,21.20
2018-05-31T07:19:24.854Z,21.20
2018-05-31T07:21:58.656Z,21.40
2018-05-31T07:24:33.179Z,21.60
2018-05-31T07:27:06.714Z,21.60
2018-05-31T07:29:40.411Z,21.70
2018-05-31T07:32:13.947Z,21.60
2018-05-31T07:34:47.557Z,21.60
2018-05-31T07:37:22.029Z,22.00
2018-05-31T07:39:56.341Z,22.00
2018-05-31T07:42:29.888Z,22.00
2018-05-31T07:45:03.586Z,22.00
2018-05-31T07:47:37.216Z,22.10
2018-05-31T07:50:10.867Z,22.30
2018-05-31T07:52:45.145Z,22.10
2018-05-31T07:55:18.899Z,22.10
2018-05-31T07:57:52.606Z,22.30
2018-05-31T08:00:26.261Z,22.30
2018-05-31T08:02:59.852Z,22.40
2018-05-31T08:05:33.566Z,22.60
2018-05-31T08:08:07.270Z,22.50
2018-05-31T08:10:40.791Z,22.50
2018-05-31T08:13:14.307Z,22.60
2018-05-31T08:15:47.879Z,23.00
2018-05-31T08:18:21.635Z,23.20
2018-05-31T08:20:55.277Z,23.40
2018-05-31T08:23:28.881Z,23.50
2018-05-31T08:26:03.166Z,23.80
2018-05-31T08:28:36.771Z,23.80
2018-05-31T08:31:10.507Z,24.00
2018-05-31T08:33:44.019Z,24.00
2018-05-31T08:36:17.721Z,23.80
2018-05-31T08:38:51.327Z,24.00
2018-05-31T08:41:24.923Z,24.20
2018-05-31T08:43:59.219Z,24.40
2018-05-31T08:46:32.961Z,24.30
2018-05-31T08:49:06.537Z,24.20
2018-05-31T08:51:40.112Z,24.50
2018-05-31T08:54:13.665Z,24.60
2018-05-31T08:56:47.247Z,24.70
2018-05-31T08:59:20.822Z,24.80
2018-05-31T09:01:54.402Z,24.90
2018-05-31T09:04:27.958Z,24.90
2018-05-31T09:07:01.598Z,24.70
2018-05-31T09:09:35.957Z,24.70
2018-05-31T09:12:09.565Z,24.60
2018-05-31T09:14:43.865Z,24.50
2018-05-31T09:17:17.465Z,24.50
2018-05-31T09:19:51.785Z,24.80
2018-05-31T09:22:25.368Z,24.80
2018-05-31T09:24:58.884Z,25.00
2018-05-31T09:27:32.511Z,25.10
2018-05-31T09:30:06.205Z,25.20
2018-05-31T09:32:39.763Z,25.20
2018-05-31T09:35:13.435Z,25.00
2018-05-31T09:37:47.046Z,25.20
2018-05-31T09:40:20.811Z,25.20
2018-05-31T09:42:54.451Z,25.30
2018-05-31T09:45:28.185Z,25.50
2018-05-31T09:48:01.761Z,25.60
2018-05-31T09:50:35.440Z,25.50
2018-05-31T09:53:09.927Z,26.10
2018-05-31T09:55:43.535Z,26.00
2018-05-31T09:58:17.229Z,26.00
2018-05-31T10:00:50.915Z,25.90
2018-05-31T10:03:24.426Z,26.00
2018-05-31T10:05:58.167Z,25.90
2018-05-31T10:08:31.728Z,26.00
2018-05-31T10:11:05.321Z,26.20
2018-05-31T10:13:38.912Z,26.10
2018-05-31T10:16:12.535Z,26.10
2018-05-31T10:18:46.129Z,26.20
2018-05-31T10:21:19.775Z,26.40
2018-05-31T10:23:53.545Z,26.40
2018-05-31T10:26:27.125Z,26.50
2018-05-31T10:29:00.815Z,26.60
2018-05-31T10:31:34.523Z,26.60
2018-05-31T10:34:08.040Z,26.60
2018-05-31T10:36:42.464Z,26.70
2018-05-31T10:39:16.049Z,26.60
2018-05-31T10:41:49.674Z,26.60
2018-05-31T10:44:23.258Z,26.60
2018-05-31T10:46:56.782Z,26.80
2018-05-31T10:49:30.391Z,26.90
2018-05-31T10:52:03.989Z,27.10
2018-05-31T10:54:37.612Z,26.80
2018-05-31T10:57:11.400Z,26.90
2018-05-31T10:59:44.892Z,26.80
2018-05-31T11:02:19.415Z,27.20
2018-05-31T11:04:53.084Z,27.20
2018-05-31T11:07:26.727Z,27.10
2018-05-31T11:10:01.215Z,27.00
2018-05-31T11:12:35.530Z,27.00
2018-05-31T11:15:09.164Z,27.00
2018-05-31T11:17:42.689Z,27.20
2018-05-31T11:20:16.424Z,27.40
2018-05-31T11:22:50.962Z,27.60
2018-05-31T11:25:25.253Z,27.20
2018-05-31T11:27:58.828Z,27.20
2018-05-31T11:30:32.559Z,27.40
2018-05-31T11:33:06.185Z,27.70
2018-05-31T11:35:39.764Z,27.80
2018-05-31T11:38:13.385Z,27.90
2018-05-31T11:40:47.014Z,28.00
2018-05-31T11:43:20.706Z,28.10
2018-05-31T11:45:54.281Z,28.00
2018-05-31T11:48:28.172Z,27.90
2018-05-31T11:51:01.692Z,27.60
2018-05-31T11:53:35.381Z,28.00
2018-05-31T11:56:08.990Z,28.10
2018-05-31T11:58:42.582Z,28.20
2018-05-31T12:01:16.921Z,28.20
2018-05-31T12:03:50.567Z,28.20
2018-05-31T12:06:24.095Z,28.10
2018-05-31T12:08:57.651Z,28.10
2018-05-31T12:11:31.319Z,28.00
2018-05-31T12:14:05.001Z,27.80
2018-05-31T12:16:38.539Z,27.90
2018-05-31T12:19:12.164Z,27.90
2018-05-31T12:21:45.698Z,27.80
2018-05-31T12:24:19.384Z,27.70
2018-05-31T12:26:53.059Z,27.70
2018-05-31T12:29:26.711Z,27.80
2018-05-31T12:32:01.033Z,28.00
2018-05-31T12:34:34.592Z,27.90
2018-05-31T12:37:08.100Z,28.00
2018-05-31T12:39:41.853Z,28.20
2018-05-31T12:42:16.347Z,28.40
2018-05-31T12:44:51.210Z,28.40
2018-05-31T12:47:24.864Z,28.40
2018-05-31T12:49:58.566Z,28.50
2018-05-31T12:52:32.097Z,28.50
2018-05-31T12:55:05.783Z,28.70
2018-05-31T12:57:39.517Z,28.80
2018-05-31T13:00:14.014Z,28.30
2018-05-31T13:02:47.575Z,28.30
2018-05-31T13:05:21.128Z,27.90
2018-05-31T13:07:54.887Z,28.10
2018-05-31T13:10:29.352Z,28.20
2018-05-31T13:13:02.882Z,28.20
2018-05-31T13:15:37.357Z,28.40
2018-05-31T13:18:10.900Z,28.40
2018-05-31T13:20:44.621Z,28.50
2018-05-31T13:23:18.385Z,28.60
2018-05-31T13:25:52.778Z,28.50
2018-05-31T13:28:27.128Z,28.20
2018-05-31T13:31:00.861Z,28.20
2018-05-31T13:33:35.312Z,27.90
2018-05-31T13:36:08.895Z,27.90
2018-05-31T13:38:42.523Z,28.00
2018-05-31T13:41:17.787Z,28.30
2018-05-31T13:43:51.336Z,28.30
2018-05-31T13:46:24.979Z,28.30
2018-05-31T13:48:58.561Z,28.30
2018-05-31T13:51:32.099Z,28.40
2018-05-31T13:54:05.681Z,28.90
2018-05-31T13:56:40.072Z,28.70
2018-05-31T13:59:13.804Z,28.70
2018-05-31T14:01:47.620Z,28.70
2018-05-31T14:04:21.662Z,28.50
2018-05-31T14:06:55.335Z,28.70
2018-05-31T14:09:29.223Z,28.40
2018-05-31T14:12:02.991Z,28.10
2018-05-31T14:14:37.447Z,28.20
2018-05-31T14:17:11.093Z,28.20
2018-05-31T14:19:44.883Z,28.20
2018-05-31T14:22:18.506Z,27.80
2018-05-31T14:24:52.229Z,27.50
2018-05-31T14:27:25.889Z,27.20
2018-05-31T14:29:59.400Z,27.30
2018-05-31T14:32:33.057Z,27.40
2018-05-31T14:35:06.814Z,27.60
2018-05-31T14:37:40.397Z,27.90
2018-05-31T14:40:14.000Z,28.10
2018-05-31T14:42:47.681Z,28.50
2018-05-31T14:45:21.226Z,28.40
2018-05-31T14:47:55.704Z,28.50
2018-05-31T14:50:29.281Z,28.40
2018-05-31T14:53:03.295Z,28.50
2018-05-31T14:55:36.990Z,28.20
2018-05-31T14:58:10.551Z,28.40
2018-05-31T15:00:44.975Z,27.70
2018-05-31T15:03:18.549Z,27.70
2018-05-31T15:05:52.941Z,27.50
2018-05-31T15:08:26.463Z,27.50
2018-05-31T15:11:00.062Z,27.20
2018-05-31T15:13:34.590Z,27.00
2018-05-31T15:16:08.572Z,27.00
2018-05-31T15:18:42.258Z,26.90
2018-05-31T15:21:16.587Z,26.60
2018-05-31T15:23:50.172Z,26.60
2018-05-31T15:26:23.711Z,26.50
2018-05-31T15:28:58.228Z,26.60
2018-05-31T15:31:31.983Z,26.50
2018-05-31T15:34:05.635Z,26.20
2018-05-31T15:36:39.239Z,26.10
2018-05-31T15:39:12.977Z,26.10
2018-05-31T15:41:47.477Z,26.20
2018-05-31T15:44:21.235Z,26.10
2018-05-31T15:46:54.914Z,26.20
2018-05-31T15:49:28.661Z,26.20
2018-05-31T15:52:02.388Z,26.40
2018-05-31T15:54:36.844Z,26.40
2018-05-31T15:57:10.601Z,26.40
2018-05-31T15:59:44.158Z,25.60
2018-05-31T16:02:18.606Z,24.60
2018-05-31T16:04:52.141Z,24.60
2018-05-31T16:07:26.621Z,23.30
2018-05-31T16:10:00.316Z,23.20
2018-05-31T16:12:33.960Z,22.80
2018-05-31T16:15:07.514Z,22.60
2018-05-31T16:17:41.853Z,22.40
2018-05-31T16:20:15.485Z,22.40
2018-05-31T16:22:49.049Z,22.40
2018-05-31T16:25:23.404Z,22.30
2018-05-31T16:27:56.998Z,22.30
2018-05-31T16:30:30.648Z,22.00
2018-05-31T16:33:04.157Z,21.80
2018-05-31T16:35:38.437Z,22.10
2018-05-31T16:38:12.006Z,22.10
2018-05-31T16:40:45.991Z,22.50
2018-05-31T16:43:19.691Z,22.80
2018-05-31T16:45:53.271Z,23.00
2018-05-31T16:48:27.613Z,21.50
2018-05-31T16:51:01.233Z,21.50
2018-05-31T16:53:34.816Z,21.60
2018-05-31T16:56:08.441Z,21.40
2018-05-31T16:58:42.209Z,20.70
2018-05-31T17:01:15.779Z,20.40
2018-05-31T17:03:49.346Z,19.90
2018-05-31T17:06:22.890Z,19.90
2018-05-31T17:08:56.418Z,19.90
2018-05-31T17:11:30.123Z,19.80
2018-05-31T17:14:03.681Z,19.60
2018-05-31T17:16:37.232Z,19.40
2018-05-31T17:19:10.783Z,19.20
2018-05-31T17:21:44.428Z,18.90
2018-05-31T17:24:18.926Z,18.50
2018-05-31T17:26:54.192Z,18.50
2018-05-31T17:29:27.768Z,18.50
2018-05-31T17:32:01.489Z,18.40
2018-05-31T17:34:34.971Z,18.10
2018-05-31T17:37:08.506Z,18.50
2018-05-31T17:39:42.010Z,19.20
2018-05-31T17:42:15.541Z,18.40
2018-05-31T17:44:49.100Z,18.10
2018-05-31T17:47:22.659Z,18.60
2018-05-31T17:49:56.352Z,18.50
2018-05-31T17:52:29.981Z,18.90
2018-05-31T17:55:03.693Z,19.40
2018-05-31T17:57:37.197Z,19.50
2018-05-31T18:00:10.733Z,19.30
2018-05-31T18:02:44.308Z,18.30
2018-05-31T18:05:17.856Z,17.80
2018-05-31T18:07:51.464Z,17.70
2018-05-31T18:10:25.759Z,17.60
2018-05-31T18:12:59.462Z,17.50
2018-05-31T18:15:33.053Z,17.60
2018-05-31T18:18:06.610Z,17.90
2018-05-31T18:20:40.172Z,18.40
2018-05-31T18:23:13.788Z,18.20
2018-05-31T18:25:48.226Z,18.70
2018-05-31T18:28:22.641Z,19.10
2018-05-31T18:30:58.271Z,19.10
2018-05-31T18:33:31.827Z,19.40
2018-05-31T18:36:05.498Z,19.70
2018-05-31T18:38:39.074Z,19.90
2018-05-31T18:41:12.650Z,19.80
2018-05-31T18:43:47.105Z,19.80
2018-05-31T18:46:20.782Z,19.80
2018-05-31T18:48:54.390Z,18.60
2018-05-31T18:51:27.932Z,17.90
2018-05-31T18:54:01.479Z,18.30
2018-05-31T18:56:35.007Z,18.90
2018-05-31T18:59:08.574Z,19.20
2018-05-31T19:01:42.199Z,19.30
2018-05-31T19:04:15.765Z,19.40
2018-05-31T19:06:49.327Z,19.50
2018-05-31T19:09:37.658Z,19.40
2018-05-31T19:12:11.475Z,19.40
2018-05-31T19:14:45.054Z,18.60
2018-05-31T19:17:18.567Z,18.30
2018-05-31T19:19:55.201Z,18.40
2018-05-31T19:22:28.904Z,18.60
2018-05-31T19:25:08.158Z,18.10
2018-05-31T19:27:41.826Z,18.10
2018-05-31T19:30:21.172Z,18.40
2018-05-31T19:32:54.808Z,18.30
2018-05-31T19:35:34.097Z,18.00
2018-05-31T19:38:07.660Z,18.20
2018-05-31T19:40:41.158Z,18.40
2018-05-31T19:43:20.531Z,18.10
2018-05-31T19:45:54.042Z,17.80
2018-05-31T19:48:27.584Z,17.60
2018-05-31T19:51:01.940Z,18.00
2018-05-31T19:53:41.341Z,18.00
2018-05-31T19:56:15.130Z,17.60
2018-05-31T19:58:54.395Z,17.70
2018-05-31T20:01:34.254Z,18.00
2018-05-31T20:04:07.764Z,18.00
2018-05-31T20:06:41.411Z,18.00
2018-05-31T20:09:14.978Z,17.30
2018-05-31T20:11:48.552Z,17.30
2018-05-31T20:14:22.137Z,17.30
2018-05-31T20:16:56.415Z,17.10
2018-05-31T20:19:30.251Z,17.10
2018-05-31T20:22:03.884Z,17.00
2018-05-31T20:24:37.428Z,17.00
2018-05-31T20:27:11.010Z,17.00
2018-05-31T20:29:44.562Z,16.90
2018-05-31T20:32:19.044Z,16.50
2018-05-31T20:34:52.728Z,16.40
2018-05-31T20:37:26.277Z,16.70
2018-05-31T20:39:59.934Z,16.80
2018-05-31T20:42:33.543Z,16.80
2018-05-31T20:45:07.110Z,16.80
2018-05-31T20:47:40.672Z,17.20
2018-05-31T20:50:14.218Z,17.50
2018-05-31T20:52:47.854Z,17.50
2018-05-31T20:55:21.433Z,17.60
2018-05-31T20:57:54.946Z,17.80
2018-05-31T21:00:28.537Z,17.90
2018-05-31T21:03:02.997Z,17.10
2018-05-31T21:05:36.674Z,17.10
2018-05-31T21:08:10.976Z,16.80
2018-05-31T21:10:44.752Z,16.70
2018-05-31T21:13:18.302Z,16.70
2018-05-31T21:15:51.810Z,16.50
2018-05-31T21:18:25.377Z,16.40
2018-05-31T21:20:58.932Z,16.20
2018-05-31T21:23:32.478Z,16.10
2018-05-31T21:26:06.803Z,16.30
2018-05-31T21:28:40.510Z,16.50
2018-05-31T21:31:14.112Z,17.00
2018-05-31T21:33:47.811Z,17.40
2018-05-31T21:36:21.437Z,17.60
2018-05-31T21:38:55.004Z,17.70
2018-05-31T21:41:29.337Z,17.80
2018-05-31T21:44:03.102Z,17.80
2018-05-31T21:46:36.669Z,17.70
2018-05-31T21:49:10.160Z,17.80
2018-05-31T21:51:43.722Z,17.40
2018-05-31T21:54:17.327Z,17.40
2018-05-31T21:56:50.923Z,17.40
2018-05-31T21:59:25.208Z,17.70
2018-05-31T22:01:58.761Z,17.70
2018-05-31T22:04:33.059Z,18.10
2018-05-31T22:07:06.717Z,18.10
2018-05-31T22:09:41.034Z,17.70
2018-05-31T22:12:14.900Z,17.70
2018-05-31T22:14:48.666Z,17.80
2018-05-31T22:17:22.183Z,17.70
2018-05-31T22:19:55.718Z,17.60
2018-05-31T22:22:29.353Z,17.60
2018-05-31T22:25:02.939Z,17.80
2018-05-31T22:27:37.403Z,17.70
2018-05-31T22:30:11.011Z,17.60
2018-05-31T22:32:44.607Z,17.50
2018-05-31T22:35:18.165Z,17.50
2018-05-31T22:37:51.680Z,17.60
2018-05-31T22:40:25.303Z,17.70
2018-05-31T22:42:58.792Z,17.80
2018-05-31T22:45:32.323Z,18.00
2018-05-31T22:48:05.910Z,18.00
2018-05-31T22:50:39.649Z,18.00
2018-05-31T22:53:13.250Z,18.00
2018-05-31T22:55:47.021Z,18.00
2018-05-31T22:58:21.342Z,17.80
2018-05-31T23:00:55.778Z,16.70
2018-05-31T23:03:30.405Z,16.10
2018-05-31T23:06:04.020Z,16.00
2018-05-31T23:08:42.555Z,15.90
2018-05-31T23:11:16.216Z,15.90
2018-05-31T23:13:49.800Z,15.80
2018-05-31T23:16:23.412Z,15.70
2018-05-31T23:18:56.995Z,15.60
2018-05-31T23:21:31.326Z,15.40
2018-05-31T23:24:05.044Z,15.30
2018-05-31T23:26:38.701Z,15.30
2018-05-31T23:29:12.255Z,15.40
2018-05-31T23:31:45.823Z,15.50
2018-05-31T23:34:19.405Z,15.70
2018-05-31T23:36:52.924Z,15.90
2018-05-31T23:39:26.503Z,16.00
2018-05-31T23:42:00.119Z,16.20
2018-05-31T23:44:33.634Z,16.20
2018-05-31T23:47:07.194Z,16.00
2018-05-31T23:49:41.522Z,15.70
2018-05-31T23:52:15.232Z,15.70
2018-05-31T23:54:48.983Z,15.60
2018-05-31T23:57:22.808Z,15.50
2018-05-31T23:59:56.369Z,15.40
